Terminal Aerodrome Forecast
Issued by NWS Buffalo, NY

Home | Current Version | Previous Version | Text Only | Print | Product List | Glossary On
Versions: 1 2 3 4 5 6 7 8 9 10 11 12 13 14 15 16 17 18 19 20 21 22 23 24 25
910
FTUS41 KBUF 130300 AAD
TAFBUF
TAF AMD
KBUF 130300Z 1303/1324 27015G25KT 6SM -SN SCT025 BKN040
     FM130600 29015G25KT 4SM -SN OVC025
      TEMPO 1306/1308 2SM -SN
     FM130800 28012G20KT P6SM VCSH SCT025 BKN040
     FM131200 30015G25KT P6SM BKN025
     FM131700 28012KT P6SM BKN040=

USA.gov is the U.S. government's official web portal to all federal, state and local government web resources and services.